sensor_id;sensor_type;location;lat;lon;timestamp;pressure;altitude;pressure_sealevel;temperature;humidity
83488;BME280;73424;49.994;8.184;2024-03-22T00:01:39;100687.34;;;9.10;81.73
83488;BME280;73424;49.994;8.184;2024-03-22T00:04:04;100673.09;;;8.95;81.49
83488;BME280;73424;49.994;8.184;2024-03-22T00:06:29;100675.44;;;8.98;82.23
83488;BME280;73424;49.994;8.184;2024-03-22T00:08:54;100670.75;;;9.00;82.09
83488;BME280;73424;49.994;8.184;2024-03-22T00:11:20;100673.09;;;8.95;82.83
83488;BME280;73424;49.994;8.184;2024-03-22T00:13:45;100639.91;;;8.74;82.75
83488;BME280;73424;49.994;8.184;2024-03-22T00:16:11;100648.16;;;8.96;82.25
83488;BME280;73424;49.994;8.184;2024-03-22T00:18:36;100633.59;;;8.84;81.99
83488;BME280;73424;49.994;8.184;2024-03-22T00:21:01;100643.19;;;8.93;80.80
83488;BME280;73424;49.994;8.184;2024-03-22T00:23:27;100629.06;;;8.84;81.24
83488;BME280;73424;49.994;8.184;2024-03-22T00:25:54;100642.25;;;9.08;81.38
83488;BME280;73424;49.994;8.184;2024-03-22T00:28:19;100605.13;;;8.84;81.26
83488;BME280;73424;49.994;8.184;2024-03-22T00:30:44;100649.91;;;9.11;81.25
83488;BME280;73424;49.994;8.184;2024-03-22T00:33:10;100661.06;;;9.07;81.83
83488;BME280;73424;49.994;8.184;2024-03-22T00:35:35;100629.22;;;8.91;81.38
83488;BME280;73424;49.994;8.184;2024-03-22T00:38:00;100579.91;;;8.72;81.49
83488;BME280;73424;49.994;8.184;2024-03-22T00:40:26;100663.91;;;9.05;81.63
83488;BME280;73424;49.994;8.184;2024-03-22T00:42:51;100639.22;;;8.89;82.13
83488;BME280;73424;49.994;8.184;2024-03-22T00:45:16;100565.72;;;8.49;81.92
83488;BME280;73424;49.994;8.184;2024-03-22T00:47:41;100620.00;;;8.70;82.22
83488;BME280;73424;49.994;8.184;2024-03-22T00:50:07;100635.91;;;8.87;82.29
83488;BME280;73424;49.994;8.184;2024-03-22T00:52:32;100656.22;;;8.80;82.23
83488;BME280;73424;49.994;8.184;2024-03-22T00:54:57;100606.91;;;8.61;82.35
83488;BME280;73424;49.994;8.184;2024-03-22T00:57:23;100613.53;;;8.65;82.60
83488;BME280;73424;49.994;8.184;2024-03-22T00:59:48;100596.78;;;8.48;83.17
83488;BME280;73424;49.994;8.184;2024-03-22T01:02:13;100631.63;;;8.69;82.99
83488;BME280;73424;49.994;8.184;2024-03-22T01:04:38;100525.50;;;7.81;83.01
83488;BME280;73424;49.994;8.184;2024-03-22T01:07:04;100533.50;;;7.73;83.14
83488;BME280;73424;49.994;8.184;2024-03-22T01:09:29;100613.75;;;8.23;83.59
83488;BME280;73424;49.994;8.184;2024-03-22T01:11:54;100597.88;;;8.07;83.02
83488;BME280;73424;49.994;8.184;2024-03-22T01:14:19;100538.78;;;7.64;83.71
83488;BME280;73424;49.994;8.184;2024-03-22T01:16:45;100539.13;;;7.61;83.65
83488;BME280;73424;49.994;8.184;2024-03-22T01:19:10;100515.59;;;7.50;84.26
83488;BME280;73424;49.994;8.184;2024-03-22T01:21:35;100549.91;;;7.68;83.04
83488;BME280;73424;49.994;8.184;2024-03-22T01:24:01;100580.28;;;7.82;82.59
83488;BME280;73424;49.994;8.184;2024-03-22T01:26:26;100568.69;;;7.50;83.24
83488;BME280;73424;49.994;8.184;2024-03-22T01:28:51;100614.47;;;7.52;84.01
83488;BME280;73424;49.994;8.184;2024-03-22T01:31:16;100627.28;;;7.73;83.94
83488;BME280;73424;49.994;8.184;2024-03-22T01:33:42;100597.72;;;7.60;84.64
83488;BME280;73424;49.994;8.184;2024-03-22T01:36:07;100613.16;;;7.64;84.95
83488;BME280;73424;49.994;8.184;2024-03-22T01:38:32;100558.56;;;7.30;85.99
83488;BME280;73424;49.994;8.184;2024-03-22T01:40:57;100630.09;;;7.63;86.35
83488;BME280;73424;49.994;8.184;2024-03-22T01:43:23;100531.84;;;7.23;86.55
83488;BME280;73424;49.994;8.184;2024-03-22T01:45:48;100596.53;;;7.46;86.43
83488;BME280;73424;49.994;8.184;2024-03-22T01:48:13;100612.66;;;7.61;85.87
83488;BME280;73424;49.994;8.184;2024-03-22T01:50:39;100605.84;;;7.58;86.25
83488;BME280;73424;49.994;8.184;2024-03-22T01:53:04;100612.16;;;7.57;85.93
83488;BME280;73424;49.994;8.184;2024-03-22T01:55:30;100568.34;;;7.29;86.68
83488;BME280;73424;49.994;8.184;2024-03-22T01:57:56;100621.63;;;7.60;85.99
83488;BME280;73424;49.994;8.184;2024-03-22T02:00:21;100586.59;;;7.32;87.11
83488;BME280;73424;49.994;8.184;2024-03-22T02:02:47;100592.91;;;7.55;85.53
83488;BME280;73424;49.994;8.184;2024-03-22T02:05:17;100607.50;;;7.67;86.08
83488;BME280;73424;49.994;8.184;2024-03-22T02:07:46;100571.16;;;7.84;84.31
83488;BME280;73424;49.994;8.184;2024-03-22T02:10:12;100609.47;;;8.30;83.43
83488;BME280;73424;49.994;8.184;2024-03-22T02:12:38;100587.56;;;8.28;83.45
83488;BME280;73424;49.994;8.184;2024-03-22T02:15:04;100587.88;;;8.33;83.47
83488;BME280;73424;49.994;8.184;2024-03-22T02:17:31;100566.59;;;8.17;82.79
83488;BME280;73424;49.994;8.184;2024-03-22T02:19:56;100534.47;;;7.88;83.21
83488;BME280;73424;49.994;8.184;2024-03-22T02:22:21;100525.53;;;7.64;82.74
83488;BME280;73424;49.994;8.184;2024-03-22T02:24:47;100539.13;;;7.78;82.11
83488;BME280;73424;49.994;8.184;2024-03-22T02:27:12;100545.44;;;7.77;81.63
83488;BME280;73424;49.994;8.184;2024-03-22T02:29:37;100573.81;;;8.00;81.14
83488;BME280;73424;49.994;8.184;2024-03-22T02:32:02;100495.19;;;7.51;81.27
83488;BME280;73424;49.994;8.184;2024-03-22T02:34:28;100538.13;;;7.71;81.28
83488;BME280;73424;49.994;8.184;2024-03-22T02:36:54;100547.63;;;7.49;82.75
83488;BME280;73424;49.994;8.184;2024-03-22T02:39:19;100517.91;;;7.45;82.50
83488;BME280;73424;49.994;8.184;2024-03-22T02:41:44;100545.59;;;7.75;82.54
83488;BME280;73424;49.994;8.184;2024-03-22T02:44:09;100532.84;;;7.62;82.53
83488;BME280;73424;49.994;8.184;2024-03-22T02:46:35;100528.50;;;7.78;82.62
83488;BME280;73424;49.994;8.184;2024-03-22T02:49:00;100538.13;;;7.95;82.07
83488;BME280;73424;49.994;8.184;2024-03-22T02:51:25;100530.00;;;7.72;81.40
83488;BME280;73424;49.994;8.184;2024-03-22T02:53:50;100530.50;;;7.59;82.49
83488;BME280;73424;49.994;8.184;2024-03-22T02:56:16;100545.25;;;7.94;81.93
83488;BME280;73424;49.994;8.184;2024-03-22T02:58:41;100527.16;;;7.74;81.38
83488;BME280;73424;49.994;8.184;2024-03-22T03:01:06;100524.34;;;7.91;81.10
83488;BME280;73424;49.994;8.184;2024-03-22T03:03:32;100440.59;;;7.48;79.85
83488;BME280;73424;49.994;8.184;2024-03-22T03:05:57;100505.56;;;7.93;80.50
83488;BME280;73424;49.994;8.184;2024-03-22T03:08:22;100541.50;;;8.19;80.31
83488;BME280;73424;49.994;8.184;2024-03-22T03:10:48;100489.63;;;8.01;80.67
83488;BME280;73424;49.994;8.184;2024-03-22T03:13:13;100498.66;;;8.22;79.66
83488;BME280;73424;49.994;8.184;2024-03-22T03:15:38;100512.44;;;8.34;79.66
83488;BME280;73424;49.994;8.184;2024-03-22T03:18:04;100493.00;;;8.26;79.60
83488;BME280;73424;49.994;8.184;2024-03-22T03:20:29;100490.72;;;8.14;80.85
83488;BME280;73424;49.994;8.184;2024-03-22T03:22:54;100445.34;;;7.85;80.19
83488;BME280;73424;49.994;8.184;2024-03-22T03:25:20;100409.13;;;7.84;80.58
83488;BME280;73424;49.994;8.184;2024-03-22T03:27:46;100503.34;;;8.59;80.08
83488;BME280;73424;49.994;8.184;2024-03-22T03:30:11;100463.84;;;8.48;80.08
83488;BME280;73424;49.994;8.184;2024-03-22T03:32:36;100451.38;;;8.49;79.73
83488;BME280;73424;49.994;8.184;2024-03-22T03:35:01;100514.41;;;9.02;79.48
83488;BME280;73424;49.994;8.184;2024-03-22T03:37:27;100487.47;;;8.74;79.66
83488;BME280;73424;49.994;8.184;2024-03-22T03:39:52;100457.38;;;8.73;78.42
83488;BME280;73424;49.994;8.184;2024-03-22T03:42:17;100498.47;;;8.94;79.05
83488;BME280;73424;49.994;8.184;2024-03-22T03:44:42;100399.91;;;8.42;79.30
83488;BME280;73424;49.994;8.184;2024-03-22T03:47:08;100441.56;;;8.80;78.76
83488;BME280;73424;49.994;8.184;2024-03-22T03:49:33;100505.53;;;8.87;79.70
83488;BME280;73424;49.994;8.184;2024-03-22T03:51:58;100510.19;;;8.85;79.93
83488;BME280;73424;49.994;8.184;2024-03-22T03:54:24;100506.81;;;8.91;80.47
83488;BME280;73424;49.994;8.184;2024-03-22T03:56:49;100485.41;;;8.53;81.13
83488;BME280;73424;49.994;8.184;2024-03-22T03:59:14;100429.91;;;8.19;81.35
83488;BME280;73424;49.994;8.184;2024-03-22T04:01:39;100334.38;;;7.95;80.60
83488;BME280;73424;49.994;8.184;2024-03-22T04:04:05;100496.50;;;8.96;80.49
83488;BME280;73424;49.994;8.184;2024-03-22T04:06:30;100474.59;;;8.86;80.62
83488;BME280;73424;49.994;8.184;2024-03-22T04:08:55;100470.28;;;8.85;80.73
83488;BME280;73424;49.994;8.184;2024-03-22T04:11:20;100435.41;;;8.80;80.06
83488;BME280;73424;49.994;8.184;2024-03-22T04:13:46;100473.91;;;8.92;81.41
83488;BME280;73424;49.994;8.184;2024-03-22T04:16:12;100459.25;;;8.96;80.34
83488;BME280;73424;49.994;8.184;2024-03-22T04:18:38;100461.91;;;8.96;81.09
83488;BME280;73424;49.994;8.184;2024-03-22T04:21:04;100451.25;;;8.96;80.51
83488;BME280;73424;49.994;8.184;2024-03-22T04:23:29;100453.84;;;9.04;81.18
83488;BME280;73424;49.994;8.184;2024-03-22T04:25:55;100465.16;;;9.20;81.53
83488;BME280;73424;49.994;8.184;2024-03-22T04:28:21;100453.97;;;8.65;82.14
83488;BME280;73424;49.994;8.184;2024-03-22T04:30:59;100472.63;;;9.02;82.54
83488;BME280;73424;49.994;8.184;2024-03-22T04:33:26;100488.97;;;8.99;82.46
83488;BME280;73424;49.994;8.184;2024-03-22T04:35:51;100407.25;;;8.62;81.56
83488;BME280;73424;49.994;8.184;2024-03-22T04:38:17;100436.69;;;9.06;81.12
83488;BME280;73424;49.994;8.184;2024-03-22T04:40:42;100451.25;;;8.96;81.48
83488;BME280;73424;49.994;8.184;2024-03-22T04:43:08;100447.09;;;8.93;81.64
83488;BME280;73424;49.994;8.184;2024-03-22T04:45:33;100457.75;;;9.16;81.58
83488;BME280;73424;49.994;8.184;2024-03-22T04:47:59;100453.97;;;8.88;81.59
83488;BME280;73424;49.994;8.184;2024-03-22T04:50:25;100461.03;;;9.18;81.03
83488;BME280;73424;49.994;8.184;2024-03-22T04:52:50;100382.66;;;8.60;81.31
83488;BME280;73424;49.994;8.184;2024-03-22T04:55:15;100473.19;;;8.98;82.34
83488;BME280;73424;49.994;8.184;2024-03-22T04:57:40;100448.47;;;8.89;81.73
83488;BME280;73424;49.994;8.184;2024-03-22T05:00:06;100459.84;;;9.20;80.82
83488;BME280;73424;49.994;8.184;2024-03-22T05:02:33;100439.53;;;9.05;81.22
83488;BME280;73424;49.994;8.184;2024-03-22T05:04:59;100445.94;;;8.96;82.06
83488;BME280;73424;49.994;8.184;2024-03-22T05:07:24;100446.56;;;8.98;81.73
83488;BME280;73424;49.994;8.184;2024-03-22T05:09:52;100427.91;;;8.83;81.26
83488;BME280;73424;49.994;8.184;2024-03-22T05:12:17;100441.19;;;9.06;81.70
83488;BME280;73424;49.994;8.184;2024-03-22T05:14:43;100476.78;;;9.27;81.39
83488;BME280;73424;49.994;8.184;2024-03-22T05:17:08;100481.22;;;9.35;80.94
83488;BME280;73424;49.994;8.184;2024-03-22T05:19:33;100392.25;;;8.92;81.47
83488;BME280;73424;49.994;8.184;2024-03-22T05:21:59;100464.66;;;9.25;82.10
83488;BME280;73424;49.994;8.184;2024-03-22T05:24:25;100441.06;;;9.22;81.43
83488;BME280;73424;49.994;8.184;2024-03-22T05:26:50;100443.22;;;9.56;80.65
83488;BME280;73424;49.994;8.184;2024-03-22T05:29:16;100367.25;;;9.16;80.04
83488;BME280;73424;49.994;8.184;2024-03-22T05:31:49;100474.56;;;9.98;79.80
83488;BME280;73424;49.994;8.184;2024-03-22T05:34:16;100476.34;;;9.91;79.79
83488;BME280;73424;49.994;8.184;2024-03-22T05:36:41;100405.31;;;9.54;79.44
83488;BME280;73424;49.994;8.184;2024-03-22T05:39:07;100468.13;;;10.07;79.04
83488;BME280;73424;49.994;8.184;2024-03-22T05:41:32;100441.59;;;9.99;78.62
83488;BME280;73424;49.994;8.184;2024-03-22T05:43:58;100362.22;;;9.65;78.47
83488;BME280;73424;49.994;8.184;2024-03-22T05:46:23;100437.94;;;10.00;79.38
83488;BME280;73424;49.994;8.184;2024-03-22T05:48:48;100396.47;;;9.68;79.62
83488;BME280;73424;49.994;8.184;2024-03-22T05:51:15;100397.78;;;9.87;79.83
83488;BME280;73424;49.994;8.184;2024-03-22T05:53:41;100443.78;;;10.24;79.85
83488;BME280;73424;49.994;8.184;2024-03-22T05:56:07;100420.16;;;10.21;79.19
83488;BME280;73424;49.994;8.184;2024-03-22T05:58:32;100448.59;;;10.14;79.80
83488;BME280;73424;49.994;8.184;2024-03-22T06:00:58;100419.53;;;10.19;79.40
83488;BME280;73424;49.994;8.184;2024-03-22T06:03:23;100462.38;;;10.68;78.45
83488;BME280;73424;49.994;8.184;2024-03-22T06:05:49;100438.41;;;10.54;78.89
83488;BME280;73424;49.994;8.184;2024-03-22T06:08:14;100437.19;;;10.56;78.37
83488;BME280;73424;49.994;8.184;2024-03-22T06:10:44;100410.91;;;10.53;78.66
83488;BME280;73424;49.994;8.184;2024-03-22T06:13:10;100408.75;;;10.63;78.16
83488;BME280;73424;49.994;8.184;2024-03-22T06:15:35;100422.84;;;10.57;78.58
83488;BME280;73424;49.994;8.184;2024-03-22T06:18:00;100422.31;;;10.47;79.49
83488;BME280;73424;49.994;8.184;2024-03-22T06:20:26;100400.31;;;10.24;79.75
83488;BME280;73424;49.994;8.184;2024-03-22T06:22:51;100421.41;;;10.55;79.55
83488;BME280;73424;49.994;8.184;2024-03-22T06:25:16;100393.00;;;10.68;78.36
83488;BME280;73424;49.994;8.184;2024-03-22T06:27:41;100404.13;;;10.72;79.44
83488;BME280;73424;49.994;8.184;2024-03-22T06:30:07;100380.31;;;10.91;77.84
83488;BME280;73424;49.994;8.184;2024-03-22T06:32:32;100384.16;;;10.89;77.31
83488;BME280;73424;49.994;8.184;2024-03-22T06:34:59;100433.31;;;11.22;77.39
83488;BME280;73424;49.994;8.184;2024-03-22T06:37:24;100391.38;;;11.16;76.89
83488;BME280;73424;49.994;8.184;2024-03-22T06:39:49;100349.38;;;11.04;77.00
83488;BME280;73424;49.994;8.184;2024-03-22T06:42:14;100388.13;;;11.21;77.34
83488;BME280;73424;49.994;8.184;2024-03-22T06:44:40;100430.19;;;11.40;76.74
83488;BME280;73424;49.994;8.184;2024-03-22T06:47:05;100404.00;;;11.29;77.27
83488;BME280;73424;49.994;8.184;2024-03-22T06:49:30;100394.53;;;11.54;76.45
83488;BME280;73424;49.994;8.184;2024-03-22T06:51:56;100353.69;;;11.32;76.37
83488;BME280;73424;49.994;8.184;2024-03-22T06:54:21;100381.03;;;11.69;75.06
83488;BME280;73424;49.994;8.184;2024-03-22T06:56:47;100342.00;;;11.33;75.65
83488;BME280;73424;49.994;8.184;2024-03-22T06:59:12;100429.38;;;12.02;74.09
83488;BME280;73424;49.994;8.184;2024-03-22T07:01:37;100412.66;;;11.93;73.83
83488;BME280;73424;49.994;8.184;2024-03-22T07:04:03;100393.78;;;12.01;73.90
83488;BME280;73424;49.994;8.184;2024-03-22T07:06:28;100379.53;;;11.87;74.09
83488;BME280;73424;49.994;8.184;2024-03-22T07:08:53;100397.72;;;12.12;73.84
83488;BME280;73424;49.994;8.184;2024-03-22T07:11:18;100385.88;;;11.86;74.80
83488;BME280;73424;49.994;8.184;2024-03-22T07:13:44;100367.53;;;11.42;76.02
83488;BME280;73424;49.994;8.184;2024-03-22T07:16:09;100418.44;;;11.96;74.33
83488;BME280;73424;49.994;8.184;2024-03-22T07:18:35;100367.97;;;11.80;75.57
83488;BME280;73424;49.994;8.184;2024-03-22T07:21:00;100383.22;;;11.86;75.37
83488;BME280;73424;49.994;8.184;2024-03-22T07:23:27;100350.22;;;12.07;74.96
83488;BME280;73424;49.994;8.184;2024-03-22T07:25:52;100364.50;;;12.40;73.64
83488;BME280;73424;49.994;8.184;2024-03-22T07:28:18;100366.53;;;12.25;73.15
83488;BME280;73424;49.994;8.184;2024-03-22T07:30:43;100370.03;;;12.39;73.06
83488;BME280;73424;49.994;8.184;2024-03-22T07:33:10;100397.09;;;12.70;73.46
83488;BME280;73424;49.994;8.184;2024-03-22T07:35:38;100338.16;;;12.57;72.44
83488;BME280;73424;49.994;8.184;2024-03-22T07:38:03;100379.41;;;12.95;70.79
83488;BME280;73424;49.994;8.184;2024-03-22T07:40:29;100357.97;;;12.82;71.47
83488;BME280;73424;49.994;8.184;2024-03-22T07:42:54;100343.16;;;12.99;70.93
83488;BME280;73424;49.994;8.184;2024-03-22T07:45:19;100357.56;;;12.98;71.65
83488;BME280;73424;49.994;8.184;2024-03-22T07:47:45;100340.25;;;12.94;70.59
83488;BME280;73424;49.994;8.184;2024-03-22T07:50:10;100350.97;;;13.34;69.77
83488;BME280;73424;49.994;8.184;2024-03-22T07:52:36;100341.84;;;13.61;67.73
83488;BME280;73424;49.994;8.184;2024-03-22T07:55:01;100290.78;;;13.36;68.40
83488;BME280;73424;49.994;8.184;2024-03-22T07:57:28;100379.22;;;14.13;66.62
83488;BME280;73424;49.994;8.184;2024-03-22T07:59:56;100358.97;;;14.17;67.08
83488;BME280;73424;49.994;8.184;2024-03-22T08:02:21;100330.22;;;13.80;67.86
83488;BME280;73424;49.994;8.184;2024-03-22T08:04:46;100285.19;;;13.44;68.56
83488;BME280;73424;49.994;8.184;2024-03-22T08:07:15;100324.41;;;13.26;70.80
83488;BME280;73424;49.994;8.184;2024-03-22T08:09:40;100266.94;;;12.89;70.92
83488;BME280;73424;49.994;8.184;2024-03-22T08:12:06;100231.53;;;12.67;70.11
83488;BME280;73424;49.994;8.184;2024-03-22T08:14:31;100011.59;;;10.54;72.41
83488;BME280;73424;49.994;8.184;2024-03-22T08:16:57;100311.00;;;13.19;70.80
83488;BME280;73424;49.994;8.184;2024-03-22T08:19:22;100329.09;;;13.50;70.05
83488;BME280;73424;49.994;8.184;2024-03-22T08:21:47;100314.28;;;13.28;70.16
83488;BME280;73424;49.994;8.184;2024-03-22T08:24:13;100305.41;;;13.34;70.35
83488;BME280;73424;49.994;8.184;2024-03-22T08:26:38;100330.53;;;13.52;69.26
83488;BME280;73424;49.994;8.184;2024-03-22T08:29:04;100190.19;;;12.43;70.48
83488;BME280;73424;49.994;8.184;2024-03-22T08:31:30;100329.66;;;13.65;68.80
83488;BME280;73424;49.994;8.184;2024-03-22T08:33:55;100290.28;;;13.66;68.03
83488;BME280;73424;49.994;8.184;2024-03-22T08:36:23;100253.16;;;13.62;67.95
83488;BME280;73424;49.994;8.184;2024-03-22T08:38:51;100254.44;;;13.60;67.32
83488;BME280;73424;49.994;8.184;2024-03-22T08:41:17;100268.13;;;13.39;68.81
83488;BME280;73424;49.994;8.184;2024-03-22T08:43:42;100280.31;;;13.79;68.07
83488;BME280;73424;49.994;8.184;2024-03-22T08:46:07;100242.97;;;13.84;67.69
83488;BME280;73424;49.994;8.184;2024-03-22T08:48:33;100311.41;;;14.31;67.08
83488;BME280;73424;49.994;8.184;2024-03-22T08:50:58;100238.63;;;13.83;66.47
83488;BME280;73424;49.994;8.184;2024-03-22T08:53:24;100287.00;;;14.46;66.33
83488;BME280;73424;49.994;8.184;2024-03-22T08:55:53;100279.69;;;14.78;65.17
83488;BME280;73424;49.994;8.184;2024-03-22T08:58:18;100290.38;;;14.84;64.54
83488;BME280;73424;49.994;8.184;2024-03-22T09:00:46;100289.84;;;15.00;65.12
83488;BME280;73424;49.994;8.184;2024-03-22T09:03:11;100275.03;;;14.91;64.67
83488;BME280;73424;49.994;8.184;2024-03-22T09:05:37;100283.81;;;15.23;64.43
83488;BME280;73424;49.994;8.184;2024-03-22T09:08:03;100279.09;;;15.00;64.75
83488;BME280;73424;49.994;8.184;2024-03-22T09:10:29;100257.72;;;14.87;64.53
83488;BME280;73424;49.994;8.184;2024-03-22T09:12:54;100157.81;;;14.36;64.41
83488;BME280;73424;49.994;8.184;2024-03-22T09:15:21;100300.84;;;15.35;63.94
83488;BME280;73424;49.994;8.184;2024-03-22T09:17:46;100240.59;;;15.06;63.59
83488;BME280;73424;49.994;8.184;2024-03-22T09:20:11;100229.19;;;15.65;62.35
83488;BME280;73424;49.994;8.184;2024-03-22T09:22:37;100273.91;;;15.78;62.58
83488;BME280;73424;49.994;8.184;2024-03-22T09:25:04;100275.63;;;16.20;62.95
83488;BME280;73424;49.994;8.184;2024-03-22T09:27:30;100285.41;;;15.85;63.77
83488;BME280;73424;49.994;8.184;2024-03-22T09:29:55;100268.88;;;16.29;59.40
83488;BME280;73424;49.994;8.184;2024-03-22T09:32:21;100242.84;;;16.23;59.64
83488;BME280;73424;49.994;8.184;2024-03-22T09:34:48;100260.72;;;16.18;58.86
83488;BME280;73424;49.994;8.184;2024-03-22T09:37:14;100200.78;;;16.64;58.11
83488;BME280;73424;49.994;8.184;2024-03-22T09:39:40;100285.22;;;17.62;56.36
83488;BME280;73424;49.994;8.184;2024-03-22T09:42:06;100168.22;;;16.77;56.54
83488;BME280;73424;49.994;8.184;2024-03-22T09:44:32;100224.00;;;16.23;58.19
83488;BME280;73424;49.994;8.184;2024-03-22T09:46:59;100212.63;;;16.21;59.02
83488;BME280;73424;49.994;8.184;2024-03-22T09:49:24;100197.56;;;17.36;56.37
83488;BME280;73424;49.994;8.184;2024-03-22T09:51:51;100240.28;;;17.05;56.65
83488;BME280;73424;49.994;8.184;2024-03-22T09:54:16;100211.44;;;16.82;56.71
83488;BME280;73424;49.994;8.184;2024-03-22T09:56:42;100252.78;;;17.22;57.02
83488;BME280;73424;49.994;8.184;2024-03-22T09:59:09;100182.47;;;17.24;56.16
83488;BME280;73424;49.994;8.184;2024-03-22T10:01:36;100214.53;;;17.49;55.21
83488;BME280;73424;49.994;8.184;2024-03-22T10:04:01;100170.19;;;16.93;55.27
83488;BME280;73424;49.994;8.184;2024-03-22T10:06:29;100227.25;;;17.13;56.80
83488;BME280;73424;49.994;8.184;2024-03-22T10:08:59;100244.06;;;17.43;56.32
83488;BME280;73424;49.994;8.184;2024-03-22T10:11:27;100240.56;;;17.83;55.44
83488;BME280;73424;49.994;8.184;2024-03-22T10:13:53;100232.59;;;17.88;54.31
83488;BME280;73424;49.994;8.184;2024-03-22T10:16:20;100015.19;;;16.27;54.14
83488;BME280;73424;49.994;8.184;2024-03-22T10:18:54;100092.41;;;16.04;55.67
83488;BME280;73424;49.994;8.184;2024-03-22T10:21:23;100217.66;;;17.06;55.59
83488;BME280;73424;49.994;8.184;2024-03-22T10:23:57;100041.59;;;15.61;56.27
83488;BME280;73424;49.994;8.184;2024-03-22T10:26:32;100178.38;;;17.10;55.94
83488;BME280;73424;49.994;8.184;2024-03-22T10:28:58;100136.91;;;16.18;56.94
83488;BME280;73424;49.994;8.184;2024-03-22T10:31:26;100099.56;;;16.10;56.03
83488;BME280;73424;49.994;8.184;2024-03-22T10:33:54;99803.44;;;15.07;54.52
83488;BME280;73424;49.994;8.184;2024-03-22T10:36:22;99824.88;;;14.84;55.33
83488;BME280;73424;49.994;8.184;2024-03-22T10:38:48;99884.19;;;15.47;54.70
83488;BME280;73424;49.994;8.184;2024-03-22T10:41:16;99876.03;;;15.65;54.83
83488;BME280;73424;49.994;8.184;2024-03-22T10:43:42;99937.88;;;15.88;54.50
83488;BME280;73424;49.994;8.184;2024-03-22T10:46:08;99900.31;;;16.45;53.45
83488;BME280;73424;49.994;8.184;2024-03-22T10:48:34;99788.69;;;15.56;53.56
83488;BME280;73424;49.994;8.184;2024-03-22T10:51:01;99817.84;;;15.87;52.62
83488;BME280;73424;49.994;8.184;2024-03-22T10:53:29;100156.41;;;17.86;54.33
83488;BME280;73424;49.994;8.184;2024-03-22T10:55:57;100129.75;;;17.73;54.81
83488;BME280;73424;49.994;8.184;2024-03-22T10:58:25;100152.38;;;18.33;53.79
83488;BME280;73424;49.994;8.184;2024-03-22T11:00:55;100148.25;;;17.81;54.68
83488;BME280;73424;49.994;8.184;2024-03-22T11:03:22;100109.00;;;18.23;53.40
83488;BME280;73424;49.994;8.184;2024-03-22T11:05:54;100146.72;;;17.85;53.99
83488;BME280;73424;49.994;8.184;2024-03-22T11:08:24;100142.22;;;18.40;53.69
83488;BME280;73424;49.994;8.184;2024-03-22T11:10:49;100144.19;;;18.62;52.70
83488;BME280;73424;49.994;8.184;2024-03-22T11:13:16;100131.78;;;18.82;53.50
83488;BME280;73424;49.994;8.184;2024-03-22T11:15:42;100119.28;;;19.20;51.36
83488;BME280;73424;49.994;8.184;2024-03-22T11:18:07;100094.75;;;18.83;52.40
83488;BME280;73424;49.994;8.184;2024-03-22T11:20:36;100110.47;;;19.08;51.94
83488;BME280;73424;49.994;8.184;2024-03-22T11:23:01;100084.22;;;19.08;51.60
83488;BME280;73424;49.994;8.184;2024-03-22T11:25:26;100080.66;;;19.02;51.97
83488;BME280;73424;49.994;8.184;2024-03-22T11:27:52;100056.44;;;19.13;51.73
83488;BME280;73424;49.994;8.184;2024-03-22T11:30:19;100031.72;;;19.26;52.17
83488;BME280;73424;49.994;8.184;2024-03-22T11:32:44;100083.41;;;19.29;51.10
83488;BME280;73424;49.994;8.184;2024-03-22T11:35:13;100076.13;;;19.08;51.94
83488;BME280;73424;49.994;8.184;2024-03-22T11:37:41;100053.06;;;18.79;52.62
83488;BME280;73424;49.994;8.184;2024-03-22T11:40:11;100079.31;;;19.05;52.75
83488;BME280;73424;49.994;8.184;2024-03-22T11:42:41;100065.38;;;18.70;53.16
83488;BME280;73424;49.994;8.184;2024-03-22T11:45:08;100065.25;;;19.03;52.36
83488;BME280;73424;49.994;8.184;2024-03-22T11:47:34;100047.06;;;19.20;51.69
83488;BME280;73424;49.994;8.184;2024-03-22T11:50:01;100041.69;;;18.55;53.98
83488;BME280;73424;49.994;8.184;2024-03-22T11:52:26;100058.22;;;18.59;53.93
83488;BME280;73424;49.994;8.184;2024-03-22T11:54:52;100064.13;;;18.56;53.11
83488;BME280;73424;49.994;8.184;2024-03-22T11:57:21;100062.75;;;18.75;52.50
83488;BME280;73424;49.994;8.184;2024-03-22T11:59:46;100017.38;;;18.38;53.86
83488;BME280;73424;49.994;8.184;2024-03-22T12:02:12;100037.34;;;18.76;52.05
83488;BME280;73424;49.994;8.184;2024-03-22T12:04:56;100055.25;;;18.05;53.53
83488;BME280;73424;49.994;8.184;2024-03-22T12:07:21;100051.63;;;18.71;53.57
83488;BME280;73424;49.994;8.184;2024-03-22T12:09:46;100025.78;;;18.59;53.42
83488;BME280;73424;49.994;8.184;2024-03-22T12:12:12;100017.44;;;18.60;53.30
83488;BME280;73424;49.994;8.184;2024-03-22T12:14:39;100030.75;;;18.67;53.09
83488;BME280;73424;49.994;8.184;2024-03-22T12:17:05;100022.81;;;18.82;52.18
83488;BME280;73424;49.994;8.184;2024-03-22T12:19:30;99990.75;;;18.25;52.76
83488;BME280;73424;49.994;8.184;2024-03-22T12:21:56;100025.28;;;18.62;53.46
83488;BME280;73424;49.994;8.184;2024-03-22T12:24:23;100030.25;;;18.31;54.46
83488;BME280;73424;49.994;8.184;2024-03-22T12:26:49;100021.50;;;18.63;53.36
83488;BME280;73424;49.994;8.184;2024-03-22T12:29:17;99989.34;;;18.44;53.74
83488;BME280;73424;49.994;8.184;2024-03-22T12:31:43;99959.31;;;18.84;52.20
83488;BME280;73424;49.994;8.184;2024-03-22T12:34:08;100010.09;;;18.39;53.68
83488;BME280;73424;49.994;8.184;2024-03-22T12:36:34;100008.38;;;18.50;55.21
83488;BME280;73424;49.994;8.184;2024-03-22T12:38:59;99976.34;;;18.41;54.39
83488;BME280;73424;49.994;8.184;2024-03-22T12:41:25;99991.38;;;19.24;52.38
83488;BME280;73424;49.994;8.184;2024-03-22T12:43:50;99964.00;;;19.21;51.54
83488;BME280;73424;49.994;8.184;2024-03-22T12:46:16;99952.50;;;18.77;53.10
83488;BME280;73424;49.994;8.184;2024-03-22T12:48:41;99985.34;;;18.47;53.84